Republic, MO

9:27 PM CST on December 19, 2014 (GMT -0600)
KMOREPUB5 | Change Station
CLOSE
Current Station
Personal Weather Station
Location: Republic, MO
Elevation: 1266 ft
Nearby Weather Stations

Elev 1266 ft 37.11 °N, 93.46 °W | Updated 10 minutes ago

Overcast
Overcast
36.9 °F
Feels Like 34 °F
N
4.2
Wind Variable Wind from ESE

Today
High -- | Low -- °F
--% Chance of Precip.
Yesterday
High -- | Low -- °F
Precip. -- in
7:22 AM 4:59 PM
Waning Crescent, 5% visible
Pressure 30.20 in
Visibility 5.0 miles
Clouds Overcast 300 ft
Windchill 34 °F
Dew Point 37 °F
Humidity 99%
Rainfall 0.02 in
Snow Depth Not available.
UV 0 out of 12
Pollen 3.90 out of 12
Air Quality Not available.
Flu Activity Not available.
METAR KSGF 200252Z 15007KT 5SM BR OVC003 03/02 A3018 RMK AO2 RAE0155B29E47 SLP227 P0000 60000 T00330022 58002

More Conditions Fewer Conditions

Pressure 30.20 in
Visibility 5.0 miles
Clouds Overcast 300 ft
Windchill 34 °F
Dew Point 37 °F
Humidity 99%
Rainfall 0.02 in
Snow Depth Not available.
UV 0 out of 12
Pollen 3.90 out of 12
Air Quality Not available.
Flu Activity Not available.
METAR KSGF 200252Z 15007KT 5SM BR OVC003 03/02 A3018 RMK AO2 RAE0155B29E47 SLP227 P0000 60000 T00330022 58002

More Conditions Fewer Conditions

10-Day Weather Forecast

Almanac

Astronomy

Dec. 19, 2014 Rise Set
Actual Time
Civil Twilight
Nautical Twilight
Astronomical Twilight
Moon
Length of Visible Light
Length of Day
Tomorrow will be .
, % of the Moon is Illuminated

Today's Extremes

State Highs State Lows

Community

WunderPhotos

Upload Photos

1,779,123 photos uploaded!

WunderBlogs® & News

Nearby

Air Quality

  Air Quality AQ Index Pollutant
Not available.

Snow Depth

Station Depth Elevation

Earthquake Activity

City Distance Mag. Time & Date
Minimum magnitude displayed is 2.5.

Coastal Water Temperatures

Place Temperature

Nearby Weather Stations